首页
METAR-TAF:

METAR-TAF

机场 :

韦策机场

Weeze, 德国

纬度: 51-36-09N, 经度: 006-08-32E, 海拔: 32米

当前天气观测

该预报发布于18分钟前的04:20 UTC
风速9节,风向东南,在南转南东之间变化
温度 4°C
湿度 93%
气压 999 hPa
能见度10公里或以上
1500米以下无云,无积雨云

METAR: EDLV 140420Z 13009KT 100V160 CAVOK 04/03 Q0999

时间: 05:38 (04:38 UTC)

预报

该预报发布于11小时和38分钟前的17:00 UTC
预报有效从13日的 18点(UTC)到 14日的 18点(UTC)
风速3节,风向
能见度10公里或以上
散云层高于1000英尺
多云层高于2500英尺
成为
从 13日的 23点(UTC)到 14日的 02点(UTC)
风速9节,风向东南
短暂存在
从 14日的 00点(UTC)到 14日的 07点(UTC)
能見度: 4000
轻雾
成为
从 14日的 14点(UTC)到 14日的 16点(UTC)
风速4节,风向

TAF: EDLV 131700Z 1318/1418 18003KT 9999 SCT010 BKN025 BECMG 1323/1402 13009KT TEMPO 1400/1407 4000 BR BECMG 1414/1416 10004KT

超过4000个机场的气象观测和天气预报(METAR&TAF报告)。

可查询的气象台以黄色和红色小点在地图上表示。

将鼠标移到小点上方,可查看气象台名称。

然后点击查看天气观测和预报。

如需切换地图:点击带黑十字的绿色按钮放大地图;点击带横线的绿色按钮缩小地图;或者点击绿色箭头查看邻近地区的地图。


METAR-TAF: